Destin, FL (32540)

1:53 PM CDT on August 04, 2015 (GMT -0500)
Destin Water Users | | Change Station
CLOSE
Current Station
Personal Weather Station
Location: Destin, FL
Elevation: 26 ft
Nearby Weather Stations

Elev 26 ft 30.39 °N, 86.48 °W | Updated 35 seconds ago

Partly Cloudy
Partly Cloudy
90.4 °F
Feels Like 104 °F
N
4.4
Wind Variable Wind from SSE
Gusts 5.0 mph

Today
High -- | Low -- °F
--% Chance of Precip.
Yesterday
High -- | Low -- °F
Precip. -- in
6:05 AM 7:37 PM
Waning Gibbous, 75% visible
Pressure 30.02 in
Visibility 10.0 miles
Clouds Few 3500 ft
Few 12000 ft
Scattered Clouds 25000 ft
Heat Index 104 °F
Dew Point 77 °F
Humidity 65%
Rainfall 0.00 in
Snow Depth Not available.
UV 10 out of 12
Pollen 4.20 out of 12
Air Quality Not available.
Flu Activity Not available.
METAR KVPS 041755Z 18014G17KT 10SM VCSH FEW035TCU FEW120 SCT250 33/23 A3000 RMK AO2A TCU N SLP164 VCSH N T03320234 10335 20269 50001 $

More Conditions Fewer Conditions

Pressure 30.02 in
Visibility 10.0 miles
Clouds Few 3500 ft
Few 12000 ft
Scattered Clouds 25000 ft
Heat Index 104 °F
Dew Point 77 °F
Humidity 65%
Rainfall 0.00 in
Snow Depth Not available.
UV 10 out of 12
Pollen 4.20 out of 12
Air Quality Not available.
Flu Activity Not available.
METAR KVPS 041755Z 18014G17KT 10SM VCSH FEW035TCU FEW120 SCT250 33/23 A3000 RMK AO2A TCU N SLP164 VCSH N T03320234 10335 20269 50001 $

More Conditions Fewer Conditions

10-Day Weather Forecast

×

Almanac

Astronomy

Aug. 04, 2015 Rise Set
Actual Time
Civil Twilight
Nautical Twilight
Astronomical Twilight
Moon
Length of Visible Light
Length of Day
Tomorrow will be .
, % of the Moon is Illuminated

Today's Extremes

State Highs State Lows

Community

WunderPhotos

Upload Photos

1,843,937 photos uploaded!

WunderBlogs® & News

Nearby

Air Quality

  Air Quality AQ Index Pollutant
Not available.

Snow Depth

Station Depth Elevation

Earthquake Activity

City Distance Mag. Time & Date
Minimum magnitude displayed is 2.5.

Coastal Water Temperatures

Place Temperature

Stations

Nearby Weather Stations

Station Location Temp. Windchill Dew Point Humidity Wind Precip. Elev Updated Type